sensor_id;sensor_type;location;lat;lon;timestamp;P1;durP1;ratioP1;P2;durP2;ratioP2
14076;SDS011;7114;51.100;13.998;2022-12-18T00:01:01;29.10;;;9.35;;
14076;SDS011;7114;51.100;13.998;2022-12-18T00:03:31;29.13;;;9.48;;
14076;SDS011;7114;51.100;13.998;2022-12-18T00:05:57;27.85;;;9.60;;
14076;SDS011;7114;51.100;13.998;2022-12-18T00:08:24;32.13;;;9.75;;
14076;SDS011;7114;51.100;13.998;2022-12-18T00:10:50;31.83;;;9.87;;
14076;SDS011;7114;51.100;13.998;2022-12-18T00:13:20;32.40;;;9.75;;
14076;SDS011;7114;51.100;13.998;2022-12-18T00:15:46;32.03;;;9.82;;
14076;SDS011;7114;51.100;13.998;2022-12-18T00:18:13;30.33;;;9.88;;
14076;SDS011;7114;51.100;13.998;2022-12-18T00:20:39;32.10;;;10.35;;
14076;SDS011;7114;51.100;13.998;2022-12-18T00:23:06;31.97;;;9.73;;
14076;SDS011;7114;51.100;13.998;2022-12-18T00:25:33;32.15;;;10.20;;
14076;SDS011;7114;51.100;13.998;2022-12-18T00:28:00;33.45;;;9.73;;
14076;SDS011;7114;51.100;13.998;2022-12-18T00:30:28;28.77;;;9.07;;
14076;SDS011;7114;51.100;13.998;2022-12-18T00:32:54;29.75;;;9.10;;
14076;SDS011;7114;51.100;13.998;2022-12-18T00:35:20;30.80;;;10.43;;
14076;SDS011;7114;51.100;13.998;2022-12-18T00:37:47;30.80;;;10.10;;
14076;SDS011;7114;51.100;13.998;2022-12-18T00:40:13;31.15;;;9.85;;
14076;SDS011;7114;51.100;13.998;2022-12-18T00:42:40;27.63;;;8.38;;
14076;SDS011;7114;51.100;13.998;2022-12-18T00:45:20;27.73;;;8.68;;
14076;SDS011;7114;51.100;13.998;2022-12-18T00:47:48;25.87;;;8.40;;
14076;SDS011;7114;51.100;13.998;2022-12-18T00:50:15;26.67;;;8.93;;
14076;SDS011;7114;51.100;13.998;2022-12-18T00:52:42;28.27;;;9.13;;
14076;SDS011;7114;51.100;13.998;2022-12-18T00:55:08;31.92;;;9.23;;
14076;SDS011;7114;51.100;13.998;2022-12-18T00:57:35;31.33;;;9.77;;
14076;SDS011;7114;51.100;13.998;2022-12-18T01:00:01;30.73;;;9.87;;
14076;SDS011;7114;51.100;13.998;2022-12-18T01:02:28;32.58;;;10.18;;
14076;SDS011;7114;51.100;13.998;2022-12-18T01:04:56;31.83;;;10.13;;
14076;SDS011;7114;51.100;13.998;2022-12-18T01:07:22;34.50;;;10.25;;
14076;SDS011;7114;51.100;13.998;2022-12-18T01:09:49;31.25;;;10.13;;
14076;SDS011;7114;51.100;13.998;2022-12-18T01:12:15;34.70;;;9.53;;
14076;SDS011;7114;51.100;13.998;2022-12-18T01:14:41;29.23;;;9.52;;
14076;SDS011;7114;51.100;13.998;2022-12-18T01:17:08;32.72;;;10.07;;
14076;SDS011;7114;51.100;13.998;2022-12-18T01:19:34;34.00;;;9.88;;
14076;SDS011;7114;51.100;13.998;2022-12-18T01:22:02;32.33;;;9.70;;
14076;SDS011;7114;51.100;13.998;2022-12-18T01:24:28;26.20;;;9.20;;
14076;SDS011;7114;51.100;13.998;2022-12-18T01:26:55;31.23;;;9.13;;
14076;SDS011;7114;51.100;13.998;2022-12-18T01:29:22;31.42;;;9.68;;
14076;SDS011;7114;51.100;13.998;2022-12-18T01:31:48;32.53;;;9.43;;
14076;SDS011;7114;51.100;13.998;2022-12-18T01:34:15;32.17;;;9.02;;
14076;SDS011;7114;51.100;13.998;2022-12-18T01:36:41;30.33;;;9.80;;
14076;SDS011;7114;51.100;13.998;2022-12-18T01:39:10;30.00;;;9.07;;
14076;SDS011;7114;51.100;13.998;2022-12-18T01:41:37;26.05;;;8.57;;
14076;SDS011;7114;51.100;13.998;2022-12-18T01:47:21;25.55;;;8.77;;
14076;SDS011;7114;51.100;13.998;2022-12-18T01:49:50;27.73;;;8.50;;
14076;SDS011;7114;51.100;13.998;2022-12-18T01:52:16;34.05;;;9.30;;
14076;SDS011;7114;51.100;13.998;2022-12-18T01:54:45;30.70;;;9.45;;
14076;SDS011;7114;51.100;13.998;2022-12-18T01:57:12;30.77;;;8.88;;
14076;SDS011;7114;51.100;13.998;2022-12-18T01:59:38;29.40;;;8.80;;
14076;SDS011;7114;51.100;13.998;2022-12-18T02:02:07;27.00;;;7.93;;
14076;SDS011;7114;51.100;13.998;2022-12-18T02:04:33;30.00;;;8.55;;
14076;SDS011;7114;51.100;13.998;2022-12-18T02:07:01;28.85;;;8.05;;
14076;SDS011;7114;51.100;13.998;2022-12-18T02:09:33;28.88;;;8.73;;
14076;SDS011;7114;51.100;13.998;2022-12-18T02:12:04;29.58;;;8.63;;
14076;SDS011;7114;51.100;13.998;2022-12-18T02:14:33;29.87;;;8.70;;
14076;SDS011;7114;51.100;13.998;2022-12-18T02:17:03;32.28;;;9.50;;
14076;SDS011;7114;51.100;13.998;2022-12-18T02:19:43;27.17;;;8.45;;
14076;SDS011;7114;51.100;13.998;2022-12-18T02:22:20;28.13;;;8.40;;
14076;SDS011;7114;51.100;13.998;2022-12-18T02:24:54;27.05;;;8.00;;
14076;SDS011;7114;51.100;13.998;2022-12-18T02:27:28;30.43;;;8.50;;
14076;SDS011;7114;51.100;13.998;2022-12-18T02:29:56;27.90;;;8.85;;
14076;SDS011;7114;51.100;13.998;2022-12-18T02:32:24;28.48;;;8.43;;
14076;SDS011;7114;51.100;13.998;2022-12-18T02:34:52;28.60;;;7.97;;
14076;SDS011;7114;51.100;13.998;2022-12-18T02:37:21;27.90;;;8.27;;
14076;SDS011;7114;51.100;13.998;2022-12-18T02:39:49;28.07;;;8.80;;
14076;SDS011;7114;51.100;13.998;2022-12-18T02:42:17;26.48;;;8.07;;
14076;SDS011;7114;51.100;13.998;2022-12-18T02:44:46;25.55;;;7.80;;
14076;SDS011;7114;51.100;13.998;2022-12-18T02:47:14;26.88;;;7.82;;
14076;SDS011;7114;51.100;13.998;2022-12-18T02:49:44;24.85;;;7.97;;
14076;SDS011;7114;51.100;13.998;2022-12-18T02:52:18;27.13;;;7.77;;
14076;SDS011;7114;51.100;13.998;2022-12-18T02:54:56;27.65;;;7.72;;
14076;SDS011;7114;51.100;13.998;2022-12-18T02:57:30;30.77;;;8.73;;
14076;SDS011;7114;51.100;13.998;2022-12-18T03:00:03;26.33;;;7.80;;
14076;SDS011;7114;51.100;13.998;2022-12-18T03:02:33;25.00;;;7.68;;
14076;SDS011;7114;51.100;13.998;2022-12-18T03:05:05;24.43;;;7.73;;
14076;SDS011;7114;51.100;13.998;2022-12-18T03:07:37;26.27;;;8.20;;
14076;SDS011;7114;51.100;13.998;2022-12-18T03:10:06;28.13;;;8.82;;
14076;SDS011;7114;51.100;13.998;2022-12-18T03:12:35;27.55;;;8.30;;
14076;SDS011;7114;51.100;13.998;2022-12-18T03:15:07;27.52;;;7.22;;
14076;SDS011;7114;51.100;13.998;2022-12-18T03:17:36;30.43;;;7.90;;
14076;SDS011;7114;51.100;13.998;2022-12-18T03:20:05;28.20;;;7.47;;
14076;SDS011;7114;51.100;13.998;2022-12-18T03:22:35;28.77;;;8.32;;
14076;SDS011;7114;51.100;13.998;2022-12-18T03:25:03;27.20;;;7.43;;
14076;SDS011;7114;51.100;13.998;2022-12-18T03:27:32;27.08;;;7.47;;
14076;SDS011;7114;51.100;13.998;2022-12-18T03:30:00;27.23;;;7.50;;
14076;SDS011;7114;51.100;13.998;2022-12-18T03:32:35;29.00;;;7.65;;
14076;SDS011;7114;51.100;13.998;2022-12-18T03:35:05;27.98;;;7.57;;
14076;SDS011;7114;51.100;13.998;2022-12-18T03:37:33;24.92;;;7.07;;
14076;SDS011;7114;51.100;13.998;2022-12-18T03:39:59;25.50;;;6.38;;
14076;SDS011;7114;51.100;13.998;2022-12-18T03:42:27;21.00;;;6.70;;
14076;SDS011;7114;51.100;13.998;2022-12-18T03:44:56;23.77;;;6.88;;
14076;SDS011;7114;51.100;13.998;2022-12-18T03:47:25;22.83;;;6.78;;
14076;SDS011;7114;51.100;13.998;2022-12-18T03:49:56;26.25;;;7.72;;
14076;SDS011;7114;51.100;13.998;2022-12-18T03:52:25;21.85;;;6.75;;
14076;SDS011;7114;51.100;13.998;2022-12-18T03:54:52;24.17;;;6.90;;
14076;SDS011;7114;51.100;13.998;2022-12-18T03:57:21;22.98;;;6.45;;
14076;SDS011;7114;51.100;13.998;2022-12-18T03:59:50;23.92;;;6.43;;
14076;SDS011;7114;51.100;13.998;2022-12-18T04:02:18;20.00;;;5.75;;
14076;SDS011;7114;51.100;13.998;2022-12-18T04:04:45;23.83;;;6.10;;
14076;SDS011;7114;51.100;13.998;2022-12-18T04:07:14;23.87;;;6.57;;
14076;SDS011;7114;51.100;13.998;2022-12-18T04:09:41;23.92;;;6.53;;
14076;SDS011;7114;51.100;13.998;2022-12-18T04:12:08;22.60;;;5.95;;
14076;SDS011;7114;51.100;13.998;2022-12-18T04:14:34;22.55;;;6.72;;
14076;SDS011;7114;51.100;13.998;2022-12-18T04:17:01;20.17;;;6.07;;
14076;SDS011;7114;51.100;13.998;2022-12-18T04:19:27;22.40;;;6.53;;
14076;SDS011;7114;51.100;13.998;2022-12-18T04:21:53;19.92;;;5.68;;
14076;SDS011;7114;51.100;13.998;2022-12-18T04:24:21;23.65;;;6.40;;
14076;SDS011;7114;51.100;13.998;2022-12-18T04:26:47;23.15;;;7.15;;
14076;SDS011;7114;51.100;13.998;2022-12-18T04:29:14;19.48;;;6.10;;
14076;SDS011;7114;51.100;13.998;2022-12-18T04:31:40;25.20;;;6.80;;
14076;SDS011;7114;51.100;13.998;2022-12-18T04:34:07;20.23;;;6.05;;
14076;SDS011;7114;51.100;13.998;2022-12-18T04:36:33;19.88;;;6.07;;
14076;SDS011;7114;51.100;13.998;2022-12-18T04:38:59;19.50;;;6.53;;
14076;SDS011;7114;51.100;13.998;2022-12-18T04:41:27;20.90;;;6.03;;
14076;SDS011;7114;51.100;13.998;2022-12-18T04:43:53;20.23;;;6.20;;
14076;SDS011;7114;51.100;13.998;2022-12-18T04:46:20;21.55;;;5.90;;
14076;SDS011;7114;51.100;13.998;2022-12-18T04:48:46;23.48;;;5.78;;
14076;SDS011;7114;51.100;13.998;2022-12-18T04:51:12;19.90;;;6.55;;
14076;SDS011;7114;51.100;13.998;2022-12-18T04:53:39;19.42;;;5.95;;
14076;SDS011;7114;51.100;13.998;2022-12-18T04:56:06;19.70;;;5.70;;
14076;SDS011;7114;51.100;13.998;2022-12-18T04:58:35;21.45;;;6.00;;
14076;SDS011;7114;51.100;13.998;2022-12-18T05:01:02;22.63;;;5.78;;
14076;SDS011;7114;51.100;13.998;2022-12-18T05:03:29;22.55;;;6.05;;
14076;SDS011;7114;51.100;13.998;2022-12-18T05:05:55;20.33;;;5.80;;
14076;SDS011;7114;51.100;13.998;2022-12-18T05:08:22;20.00;;;5.90;;
14076;SDS011;7114;51.100;13.998;2022-12-18T05:10:49;18.25;;;5.70;;
14076;SDS011;7114;51.100;13.998;2022-12-18T05:13:15;21.52;;;6.28;;
14076;SDS011;7114;51.100;13.998;2022-12-18T05:15:43;20.45;;;6.43;;
14076;SDS011;7114;51.100;13.998;2022-12-18T05:18:17;25.35;;;7.03;;
14076;SDS011;7114;51.100;13.998;2022-12-18T05:20:43;21.20;;;6.70;;
14076;SDS011;7114;51.100;13.998;2022-12-18T05:23:10;25.55;;;7.20;;
14076;SDS011;7114;51.100;13.998;2022-12-18T05:25:36;25.48;;;7.13;;
14076;SDS011;7114;51.100;13.998;2022-12-18T05:28:03;25.58;;;6.80;;
14076;SDS011;7114;51.100;13.998;2022-12-18T05:30:29;25.23;;;7.10;;
14076;SDS011;7114;51.100;13.998;2022-12-18T05:32:57;23.93;;;6.30;;
14076;SDS011;7114;51.100;13.998;2022-12-18T05:35:24;25.90;;;7.70;;
14076;SDS011;7114;51.100;13.998;2022-12-18T05:37:50;21.42;;;6.43;;
14076;SDS011;7114;51.100;13.998;2022-12-18T05:40:17;25.98;;;7.82;;
14076;SDS011;7114;51.100;13.998;2022-12-18T05:42:43;27.13;;;7.05;;
14076;SDS011;7114;51.100;13.998;2022-12-18T05:45:10;25.37;;;7.10;;
14076;SDS011;7114;51.100;13.998;2022-12-18T05:47:36;27.25;;;7.57;;
14076;SDS011;7114;51.100;13.998;2022-12-18T05:50:05;24.52;;;7.47;;
14076;SDS011;7114;51.100;13.998;2022-12-18T05:52:32;29.55;;;8.00;;
14076;SDS011;7114;51.100;13.998;2022-12-18T05:54:59;26.08;;;7.30;;
14076;SDS011;7114;51.100;13.998;2022-12-18T05:57:25;22.53;;;7.10;;
14076;SDS011;7114;51.100;13.998;2022-12-18T05:59:51;25.75;;;7.85;;
14076;SDS011;7114;51.100;13.998;2022-12-18T06:02:18;26.77;;;7.32;;
14076;SDS011;7114;51.100;13.998;2022-12-18T06:04:45;20.10;;;6.45;;
14076;SDS011;7114;51.100;13.998;2022-12-18T06:07:13;26.83;;;6.97;;
14076;SDS011;7114;51.100;13.998;2022-12-18T06:09:40;25.67;;;7.20;;
14076;SDS011;7114;51.100;13.998;2022-12-18T06:12:06;31.48;;;7.57;;
14076;SDS011;7114;51.100;13.998;2022-12-18T06:14:32;28.08;;;8.35;;
14076;SDS011;7114;51.100;13.998;2022-12-18T06:16:59;22.00;;;6.90;;
14076;SDS011;7114;51.100;13.998;2022-12-18T06:19:25;27.23;;;7.72;;
14076;SDS011;7114;51.100;13.998;2022-12-18T06:21:52;22.43;;;6.67;;
14076;SDS011;7114;51.100;13.998;2022-12-18T06:24:19;22.23;;;6.72;;
14076;SDS011;7114;51.100;13.998;2022-12-18T06:26:46;25.02;;;6.65;;
14076;SDS011;7114;51.100;13.998;2022-12-18T06:29:12;28.52;;;6.93;;
14076;SDS011;7114;51.100;13.998;2022-12-18T06:31:38;23.40;;;6.78;;
14076;SDS011;7114;51.100;13.998;2022-12-18T06:34:05;27.13;;;7.23;;
14076;SDS011;7114;51.100;13.998;2022-12-18T06:36:31;21.55;;;6.47;;
14076;SDS011;7114;51.100;13.998;2022-12-18T06:38:58;23.55;;;6.95;;
14076;SDS011;7114;51.100;13.998;2022-12-18T06:41:25;28.83;;;7.18;;
14076;SDS011;7114;51.100;13.998;2022-12-18T06:43:52;22.55;;;7.05;;
14076;SDS011;7114;51.100;13.998;2022-12-18T06:46:18;22.83;;;6.67;;
14076;SDS011;7114;51.100;13.998;2022-12-18T06:48:46;25.30;;;6.28;;
14076;SDS011;7114;51.100;13.998;2022-12-18T06:51:15;24.30;;;7.10;;
14076;SDS011;7114;51.100;13.998;2022-12-18T06:53:42;20.88;;;5.97;;
14076;SDS011;7114;51.100;13.998;2022-12-18T06:56:08;23.27;;;6.18;;
14076;SDS011;7114;51.100;13.998;2022-12-18T06:58:36;21.77;;;6.17;;
14076;SDS011;7114;51.100;13.998;2022-12-18T07:01:03;22.30;;;6.50;;
14076;SDS011;7114;51.100;13.998;2022-12-18T07:03:30;22.08;;;5.80;;
14076;SDS011;7114;51.100;13.998;2022-12-18T07:05:56;19.88;;;5.55;;
14076;SDS011;7114;51.100;13.998;2022-12-18T07:08:23;21.73;;;6.07;;
14076;SDS011;7114;51.100;13.998;2022-12-18T07:10:49;21.97;;;6.03;;
14076;SDS011;7114;51.100;13.998;2022-12-18T07:13:16;24.25;;;5.97;;
14076;SDS011;7114;51.100;13.998;2022-12-18T07:15:44;19.45;;;6.10;;
14076;SDS011;7114;51.100;13.998;2022-12-18T07:18:10;18.73;;;6.07;;
14076;SDS011;7114;51.100;13.998;2022-12-18T07:20:36;22.17;;;6.28;;
14076;SDS011;7114;51.100;13.998;2022-12-18T07:23:03;23.50;;;6.73;;
14076;SDS011;7114;51.100;13.998;2022-12-18T07:25:30;22.33;;;6.68;;
14076;SDS011;7114;51.100;13.998;2022-12-18T07:27:56;24.45;;;6.70;;
14076;SDS011;7114;51.100;13.998;2022-12-18T07:30:22;23.80;;;6.82;;
14076;SDS011;7114;51.100;13.998;2022-12-18T07:32:50;24.50;;;7.47;;
14076;SDS011;7114;51.100;13.998;2022-12-18T07:35:16;25.30;;;7.23;;
14076;SDS011;7114;51.100;13.998;2022-12-18T07:37:43;28.00;;;7.57;;
14076;SDS011;7114;51.100;13.998;2022-12-18T07:40:10;23.83;;;7.53;;
14076;SDS011;7114;51.100;13.998;2022-12-18T07:42:37;26.02;;;6.93;;
14076;SDS011;7114;51.100;13.998;2022-12-18T07:45:04;24.02;;;7.20;;
14076;SDS011;7114;51.100;13.998;2022-12-18T07:47:33;23.43;;;7.00;;
14076;SDS011;7114;51.100;13.998;2022-12-18T07:50:04;25.23;;;7.40;;
14076;SDS011;7114;51.100;13.998;2022-12-18T07:52:32;25.98;;;6.85;;
14076;SDS011;7114;51.100;13.998;2022-12-18T07:54:58;23.25;;;7.25;;
14076;SDS011;7114;51.100;13.998;2022-12-18T07:57:24;23.65;;;7.22;;
14076;SDS011;7114;51.100;13.998;2022-12-18T07:59:51;26.93;;;7.27;;
14076;SDS011;7114;51.100;13.998;2022-12-18T08:02:17;23.40;;;6.45;;
14076;SDS011;7114;51.100;13.998;2022-12-18T08:04:43;23.73;;;6.70;;
14076;SDS011;7114;51.100;13.998;2022-12-18T08:07:11;25.58;;;6.90;;
14076;SDS011;7114;51.100;13.998;2022-12-18T08:09:37;21.38;;;6.13;;
14076;SDS011;7114;51.100;13.998;2022-12-18T08:12:04;23.37;;;7.40;;
14076;SDS011;7114;51.100;13.998;2022-12-18T08:14:31;23.48;;;6.88;;
14076;SDS011;7114;51.100;13.998;2022-12-18T08:16:57;25.00;;;7.43;;
14076;SDS011;7114;51.100;13.998;2022-12-18T08:19:24;26.30;;;7.68;;
14076;SDS011;7114;51.100;13.998;2022-12-18T08:21:50;23.77;;;7.68;;
14076;SDS011;7114;51.100;13.998;2022-12-18T08:24:18;23.63;;;7.50;;
14076;SDS011;7114;51.100;13.998;2022-12-18T08:26:44;26.55;;;7.90;;
14076;SDS011;7114;51.100;13.998;2022-12-18T08:29:11;24.10;;;6.50;;
14076;SDS011;7114;51.100;13.998;2022-12-18T08:31:37;24.30;;;7.47;;
14076;SDS011;7114;51.100;13.998;2022-12-18T08:34:03;22.50;;;6.70;;
14076;SDS011;7114;51.100;13.998;2022-12-18T08:36:30;25.33;;;7.43;;
14076;SDS011;7114;51.100;13.998;2022-12-18T08:38:56;27.38;;;7.72;;
14076;SDS011;7114;51.100;13.998;2022-12-18T08:41:24;23.17;;;7.30;;
14076;SDS011;7114;51.100;13.998;2022-12-18T08:43:51;28.55;;;8.07;;
14076;SDS011;7114;51.100;13.998;2022-12-18T08:46:35;27.48;;;8.07;;
14076;SDS011;7114;51.100;13.998;2022-12-18T08:49:03;28.33;;;8.97;;
14076;SDS011;7114;51.100;13.998;2022-12-18T08:51:30;27.42;;;8.32;;
14076;SDS011;7114;51.100;13.998;2022-12-18T08:53:57;31.08;;;7.95;;
14076;SDS011;7114;51.100;13.998;2022-12-18T08:56:25;27.50;;;8.13;;
14076;SDS011;7114;51.100;13.998;2022-12-18T08:58:51;27.40;;;7.85;;
14076;SDS011;7114;51.100;13.998;2022-12-18T09:01:18;28.43;;;7.80;;
14076;SDS011;7114;51.100;13.998;2022-12-18T09:03:45;30.60;;;8.75;;
14076;SDS011;7114;51.100;13.998;2022-12-18T09:06:13;26.73;;;8.07;;
14076;SDS011;7114;51.100;13.998;2022-12-18T09:08:39;28.40;;;8.73;;
14076;SDS011;7114;51.100;13.998;2022-12-18T09:11:09;31.95;;;8.90;;
14076;SDS011;7114;51.100;13.998;2022-12-18T09:13:39;28.10;;;8.10;;
14076;SDS011;7114;51.100;13.998;2022-12-18T09:16:06;29.85;;;8.18;;
14076;SDS011;7114;51.100;13.998;2022-12-18T09:18:32;26.58;;;7.85;;
14076;SDS011;7114;51.100;13.998;2022-12-18T09:20:59;27.48;;;8.90;;
14076;SDS011;7114;51.100;13.998;2022-12-18T09:23:25;25.38;;;8.63;;
14076;SDS011;7114;51.100;13.998;2022-12-18T09:25:52;26.10;;;7.87;;
14076;SDS011;7114;51.100;13.998;2022-12-18T09:28:24;26.85;;;8.13;;
14076;SDS011;7114;51.100;13.998;2022-12-18T09:30:52;25.80;;;7.78;;
14076;SDS011;7114;51.100;13.998;2022-12-18T09:33:18;23.30;;;7.35;;
14076;SDS011;7114;51.100;13.998;2022-12-18T09:35:45;25.52;;;7.88;;
14076;SDS011;7114;51.100;13.998;2022-12-18T09:38:12;26.53;;;8.93;;
14076;SDS011;7114;51.100;13.998;2022-12-18T09:40:41;27.35;;;7.30;;
14076;SDS011;7114;51.100;13.998;2022-12-18T09:43:10;25.33;;;7.50;;
14076;SDS011;7114;51.100;13.998;2022-12-18T09:45:40;22.75;;;8.18;;
14076;SDS011;7114;51.100;13.998;2022-12-18T09:48:10;24.67;;;7.03;;
14076;SDS011;7114;51.100;13.998;2022-12-18T09:50:41;26.27;;;7.37;;
14076;SDS011;7114;51.100;13.998;2022-12-18T09:53:10;24.98;;;8.30;;
14076;SDS011;7114;51.100;13.998;2022-12-18T09:55:39;26.48;;;7.65;;
14076;SDS011;7114;51.100;13.998;2022-12-18T09:58:12;25.90;;;7.82;;
14076;SDS011;7114;51.100;13.998;2022-12-18T10:00:41;25.35;;;7.80;;
14076;SDS011;7114;51.100;13.998;2022-12-18T10:03:08;21.73;;;7.27;;
14076;SDS011;7114;51.100;13.998;2022-12-18T10:05:39;25.30;;;7.70;;
14076;SDS011;7114;51.100;13.998;2022-12-18T10:08:09;22.55;;;7.45;;
14076;SDS011;7114;51.100;13.998;2022-12-18T10:10:38;24.10;;;7.70;;
14076;SDS011;7114;51.100;13.998;2022-12-18T10:13:08;22.83;;;7.57;;
14076;SDS011;7114;51.100;13.998;2022-12-18T10:15:39;27.07;;;7.97;;
14076;SDS011;7114;51.100;13.998;2022-12-18T10:18:16;25.33;;;7.72;;
14076;SDS011;7114;51.100;13.998;2022-12-18T10:20:47;23.45;;;7.85;;
14076;SDS011;7114;51.100;13.998;2022-12-18T10:23:17;21.27;;;7.43;;
14076;SDS011;7114;51.100;13.998;2022-12-18T10:25:50;24.15;;;8.00;;
14076;SDS011;7114;51.100;13.998;2022-12-18T10:28:20;21.87;;;7.23;;
14076;SDS011;7114;51.100;13.998;2022-12-18T10:30:46;24.42;;;8.23;;
14076;SDS011;7114;51.100;13.998;2022-12-18T10:33:13;24.02;;;7.90;;
14076;SDS011;7114;51.100;13.998;2022-12-18T10:35:42;27.33;;;8.07;;
14076;SDS011;7114;51.100;13.998;2022-12-18T10:38:20;21.23;;;7.28;;
14076;SDS011;7114;51.100;13.998;2022-12-18T10:40:49;22.73;;;7.33;;
14076;SDS011;7114;51.100;13.998;2022-12-18T10:43:19;24.95;;;8.25;;
14076;SDS011;7114;51.100;13.998;2022-12-18T10:45:57;24.35;;;8.38;;
14076;SDS011;7114;51.100;13.998;2022-12-18T10:48:27;23.90;;;7.95;;
14076;SDS011;7114;51.100;13.998;2022-12-18T10:50:54;21.58;;;7.43;;
14076;SDS011;7114;51.100;13.998;2022-12-18T10:53:21;24.97;;;8.63;;
14076;SDS011;7114;51.100;13.998;2022-12-18T10:55:48;27.00;;;7.97;;
14076;SDS011;7114;51.100;13.998;2022-12-18T10:58:16;26.67;;;8.60;;
14076;SDS011;7114;51.100;13.998;2022-12-18T11:00:45;26.42;;;8.35;;
14076;SDS011;7114;51.100;13.998;2022-12-18T11:03:31;27.33;;;8.73;;
14076;SDS011;7114;51.100;13.998;2022-12-18T11:06:04;22.27;;;7.50;;
14076;SDS011;7114;51.100;13.998;2022-12-18T11:08:32;24.50;;;8.00;;
14076;SDS011;7114;51.100;13.998;2022-12-18T11:10:59;25.98;;;7.80;;
14076;SDS011;7114;51.100;13.998;2022-12-18T11:13:26;26.75;;;8.35;;
14076;SDS011;7114;51.100;13.998;2022-12-18T11:15:54;25.40;;;6.95;;
14076;SDS011;7114;51.100;13.998;2022-12-18T11:18:22;25.30;;;7.10;;
14076;SDS011;7114;51.100;13.998;2022-12-18T11:20:53;23.48;;;7.70;;
14076;SDS011;7114;51.100;13.998;2022-12-18T11:23:22;24.10;;;7.53;;
14076;SDS011;7114;51.100;13.998;2022-12-18T11:25:53;22.25;;;7.10;;
14076;SDS011;7114;51.100;13.998;2022-12-18T11:28:28;25.33;;;7.90;;
14076;SDS011;7114;51.100;13.998;2022-12-18T11:31:12;23.83;;;7.33;;
14076;SDS011;7114;51.100;13.998;2022-12-18T11:34:01;23.05;;;7.78;;
14076;SDS011;7114;51.100;13.998;2022-12-18T11:36:32;21.48;;;7.13;;
14076;SDS011;7114;51.100;13.998;2022-12-18T11:39:02;22.77;;;6.63;;
14076;SDS011;7114;51.100;13.998;2022-12-18T11:41:36;21.05;;;7.40;;
14076;SDS011;7114;51.100;13.998;2022-12-18T11:44:24;21.97;;;7.17;;
14076;SDS011;7114;51.100;13.998;2022-12-18T11:46:55;24.15;;;7.07;;
14076;SDS011;7114;51.100;13.998;2022-12-18T11:49:25;20.55;;;6.72;;
14076;SDS011;7114;51.100;13.998;2022-12-18T11:51:55;20.42;;;7.00;;
14076;SDS011;7114;51.100;13.998;2022-12-18T11:54:25;24.55;;;7.22;;
14076;SDS011;7114;51.100;13.998;2022-12-18T11:56:53;21.53;;;6.23;;
14076;SDS011;7114;51.100;13.998;2022-12-18T11:59:25;20.70;;;6.95;;
14076;SDS011;7114;51.100;13.998;2022-12-18T12:01:58;21.13;;;6.85;;
14076;SDS011;7114;51.100;13.998;2022-12-18T12:04:41;23.02;;;6.47;;
14076;SDS011;7114;51.100;13.998;2022-12-18T12:07:20;20.35;;;6.55;;
14076;SDS011;7114;51.100;13.998;2022-12-18T12:09:57;19.13;;;6.17;;
14076;SDS011;7114;51.100;13.998;2022-12-18T12:12:31;22.10;;;6.70;;
14076;SDS011;7114;51.100;13.998;2022-12-18T12:15:13;20.42;;;6.18;;
14076;SDS011;7114;51.100;13.998;2022-12-18T12:17:47;20.80;;;6.50;;
14076;SDS011;7114;51.100;13.998;2022-12-18T12:20:19;21.60;;;6.38;;
14076;SDS011;7114;51.100;13.998;2022-12-18T12:22:49;19.50;;;6.10;;
14076;SDS011;7114;51.100;13.998;2022-12-18T12:25:23;22.85;;;6.93;;
14076;SDS011;7114;51.100;13.998;2022-12-18T12:27:58;23.65;;;6.60;;
14076;SDS011;7114;51.100;13.998;2022-12-18T12:30:35;21.38;;;6.75;;
14076;SDS011;7114;51.100;13.998;2022-12-18T12:33:12;22.75;;;5.97;;
14076;SDS011;7114;51.100;13.998;2022-12-18T12:35:46;20.77;;;6.27;;
14076;SDS011;7114;51.100;13.998;2022-12-18T12:38:21;20.65;;;6.65;;
14076;SDS011;7114;51.100;13.998;2022-12-18T12:40:51;21.20;;;6.35;;
14076;SDS011;7114;51.100;13.998;2022-12-18T12:43:21;19.98;;;6.80;;
14076;SDS011;7114;51.100;13.998;2022-12-18T12:45:52;22.08;;;6.60;;
14076;SDS011;7114;51.100;13.998;2022-12-18T12:48:28;21.20;;;6.37;;
14076;SDS011;7114;51.100;13.998;2022-12-18T12:51:00;19.63;;;6.22;;
14076;SDS011;7114;51.100;13.998;2022-12-18T12:53:29;22.30;;;6.28;;
14076;SDS011;7114;51.100;13.998;2022-12-18T12:55:57;20.58;;;6.00;;
14076;SDS011;7114;51.100;13.998;2022-12-18T12:58:26;20.30;;;6.15;;
14076;SDS011;7114;51.100;13.998;2022-12-18T13:01:00;23.20;;;6.63;;
14076;SDS011;7114;51.100;13.998;2022-12-18T13:03:34;21.05;;;6.55;;
14076;SDS011;7114;51.100;13.998;2022-12-18T13:06:08;20.02;;;6.05;;
14076;SDS011;7114;51.100;13.998;2022-12-18T13:08:52;19.38;;;5.95;;
14076;SDS011;7114;51.100;13.998;2022-12-18T13:11:31;18.33;;;5.82;;
14076;SDS011;7114;51.100;13.998;2022-12-18T13:14:22;17.43;;;5.23;;
14076;SDS011;7114;51.100;13.998;2022-12-18T13:16:49;17.35;;;5.43;;
14076;SDS011;7114;51.100;13.998;2022-12-18T13:19:21;21.35;;;5.97;;
14076;SDS011;7114;51.100;13.998;2022-12-18T13:21:51;20.52;;;5.60;;
14076;SDS011;7114;51.100;13.998;2022-12-18T13:24:23;19.23;;;5.32;;
14076;SDS011;7114;51.100;13.998;2022-12-18T13:26:51;18.90;;;5.97;;
14076;SDS011;7114;51.100;13.998;2022-12-18T13:32:19;20.02;;;6.10;;
14076;SDS011;7114;51.100;13.998;2022-12-18T13:34:46;21.08;;;6.03;;
14076;SDS011;7114;51.100;13.998;2022-12-18T13:43:23;21.17;;;5.75;;
14076;SDS011;7114;51.100;13.998;2022-12-18T13:46:00;18.33;;;5.88;;
14076;SDS011;7114;51.100;13.998;2022-12-18T13:48:28;18.52;;;5.63;;
14076;SDS011;7114;51.100;13.998;2022-12-18T13:50:59;20.05;;;5.60;;
14076;SDS011;7114;51.100;13.998;2022-12-18T13:53:29;21.83;;;5.60;;
14076;SDS011;7114;51.100;13.998;2022-12-18T13:55:58;18.00;;;5.97;;
14076;SDS011;7114;51.100;13.998;2022-12-18T13:58:26;21.65;;;5.70;;
14076;SDS011;7114;51.100;13.998;2022-12-18T14:00:53;19.13;;;5.43;;
14076;SDS011;7114;51.100;13.998;2022-12-18T14:03:20;20.50;;;5.88;;
14076;SDS011;7114;51.100;13.998;2022-12-18T14:05:52;17.10;;;4.47;;
14076;SDS011;7114;51.100;13.998;2022-12-18T14:08:20;20.80;;;5.55;;
14076;SDS011;7114;51.100;13.998;2022-12-18T14:10:47;19.08;;;5.78;;
14076;SDS011;7114;51.100;13.998;2022-12-18T14:13:15;18.08;;;5.38;;
14076;SDS011;7114;51.100;13.998;2022-12-18T14:15:46;22.15;;;5.75;;
14076;SDS011;7114;51.100;13.998;2022-12-18T14:18:16;19.90;;;5.47;;
14076;SDS011;7114;51.100;13.998;2022-12-18T14:20:46;19.05;;;5.70;;
14076;SDS011;7114;51.100;13.998;2022-12-18T14:25:56;21.48;;;6.20;;
14076;SDS011;7114;51.100;13.998;2022-12-18T14:28:22;20.23;;;5.72;;
14076;SDS011;7114;51.100;13.998;2022-12-18T14:30:52;19.53;;;5.93;;
14076;SDS011;7114;51.100;13.998;2022-12-18T14:33:20;21.15;;;5.68;;
14076;SDS011;7114;51.100;13.998;2022-12-18T14:35:53;22.00;;;5.55;;
14076;SDS011;7114;51.100;13.998;2022-12-18T14:38:21;22.08;;;6.55;;
14076;SDS011;7114;51.100;13.998;2022-12-18T14:40:53;18.70;;;6.07;;
14076;SDS011;7114;51.100;13.998;2022-12-18T14:43:25;22.27;;;6.07;;
14076;SDS011;7114;51.100;13.998;2022-12-18T14:45:53;20.42;;;5.75;;
14076;SDS011;7114;51.100;13.998;2022-12-18T14:48:20;20.60;;;6.10;;
14076;SDS011;7114;51.100;13.998;2022-12-18T14:50:54;19.38;;;6.38;;
14076;SDS011;7114;51.100;13.998;2022-12-18T14:53:23;20.55;;;5.88;;
14076;SDS011;7114;51.100;13.998;2022-12-18T14:55:58;20.07;;;6.20;;
14076;SDS011;7114;51.100;13.998;2022-12-18T14:58:24;25.92;;;7.07;;